TFM - Tactical Decision Aid
ID: Runway Winds: CIG/VIS Threshold:

KHKS - Jackson/Hawkins Fld, MS, US

Updated at: 1052 UTC 07 Dec 2022
Latest TAF at: 0910 UTC 07 Dec 2022

TAF Board

Time1047Z 07/11Z 07/12Z 07/13Z 07/14Z 07/15Z 07/16Z 07/17Z 07/18Z 07/19Z 07/20Z 07/21Z 07/22Z 07/23Z>>
Type OBS PRVL PRVL PRVL PRVL PRVL PRVL PRVL PRVL PRVL PRVL PRVL PRVL PRVL
VIS 10 >6 >6 >6 >6 >6 >6 >6 >6 >6 >6 >6 >6 >6
CIG -- 9 9 9 9 15 15 35 35 35 35 35 35 250
Cover SCT OVC OVC OVC OVC OVC OVC BKN BKN BKN BKN BKN BKN BKN
FltCat VFR IFR IFR IFR IFR MVFR MVFR VFR VFR VFR VFR VFR VFR VFR
WX -- -- -- -- -- -- -- -- -- -- -- -- -- --
WDir 190 190 190 190 190 200 200 200 200 200 200 200 200 180
WSpd 7 7 7 7 7 9 9 12 12 12 12 12 12 5
WGst -- -- -- -- -- -- -- 18 18 18 18 18 18 --
WSHgt -- -- -- -- -- -- -- -- -- -- -- -- -- --
WSDir -- -- -- -- -- -- -- -- -- -- -- -- -- --
WSSpd -- -- -- -- -- -- -- -- -- -- -- -- -- --

TDA Impact Legend

  None Marginal Slight Moderate High
Visibility (sm) >5 3≤X≤5 2≤X<3 0.5≤X<2 <0.5
Ceiling (100 ft) >30 10≤X≤30 6≤X<10 2≤X<6 <2
Wind Speed (kt) <15 15≤X<25 25≤X<30 ≥30
Wind Gust (kt) <15 15≤X<25 25≤X<35 ≥35
Weather No Wx Reported VCTS -TS,-FZRA TS,FZRA +TS,+FZRA
TAF
KHKS 070910Z 0709/0806 19007KT P6SM OVC009
  FM071500 20009KT P6SM OVC015
  FM071700 20012G18KT P6SM BKN035
  FM072300 18005KT P6SM BKN250


METAR
KHKS 071047Z AUTO 19007KT 10SM SCT011 SCT017 21/19 A3019 RMK AO2
KHKS 071018Z AUTO 20006KT 10SM OVC010 22/19 A3019 RMK AO2 T02170194
KHKS 070953Z AUTO 20008G15KT 10SM OVC009 22/19 A3019 RMK AO2 SLP214 T02170194
KHKS 070853Z AUTO 19006KT 9SM OVC009 21/19 A3018 RMK AO2 SLP211 T02110194 53013
KHKS 070830Z AUTO 18005KT 10SM OVC009 21/19 A3017 RMK AO2 T02110194
KHKS 070753Z AUTO 17005KT 10SM BKN011 21/19 A3016 RMK AO2 SLP206 T02060189

Radar Display
Forecast Discussion